Am Tubarao — A8ZA9 — position and weather

sailwx.info

Track history (hours):
 
Tides and Currents Weather Stations Pressure Air Temp Water Temp Dewpoint Dewpoint Depression Visibility Wind Speed Wind Dir Waves Ship Positions

Am Tubarao

Last reported at 2015-Jun-30 08:08 UTC. Time now 2015-Jun-30 12:39 UTC.
Position N 51°03' E 002°19'.

Date/timePositionNaut miles runAvg speedWind from/ knotsBaromVisibWave heightAir tempDewpointWater temp
2015-Jun-30 08:08N 51°03' E 002°19'0 0.0
2015-Jun-30 06:32N 51°03' E 002°19'0 0.0
2015-Jun-30 05:26N 51°03' E 002°19'0 0.0
2015-Jun-30 04:32N 51°03' E 002°19'0 0.0
2015-Jun-30 03:32N 51°03' E 002°19'0 0.0
2015-Jun-30 02:32N 51°03' E 002°19'0 0.0
2015-Jun-30 01:32N 51°03' E 002°19'0 0.0
2015-Jun-30 00:32N 51°03' E 002°19'0 0.0
2015-Jun-29 23:32N 51°03' E 002°19'0 0.0
2015-Jun-29 22:23N 51°03' E 002°19'0 0.0
2015-Jun-29 21:32N 51°03' E 002°19'0 0.0
2015-Jun-29 19:23N 51°03' E 002°19'0 0.0
2015-Jun-29 18:32N 51°03' E 002°19'0 0.0
2015-Jun-29 17:32N 51°03' E 002°19'0 0.0
2015-Jun-29 16:32N 51°03' E 002°19'0 0.0
2015-Jun-29 15:32N 51°03' E 002°19'0 0.0
2015-Jun-29 14:32N 51°03' E 002°19'0 0.0
2015-Jun-29 13:33N 51°03' E 002°19'1 0.8
2015-Jun-29 12:33N 51°03' E 002°21'1 1.1
2015-Jun-29 11:30N 51°04' E 002°19'11 9.6
2015-Jun-29 10:21N 51°03' E 002°02'911.5
2015-Jun-29 09:33N 51°02' E 001°47'1 0.9
2015-Jun-29 08:25N 51°03' E 001°48'0 0.1
2015-Jun-29 07:31N 51°03' E 001°48'0 0.2
2015-Jun-29 06:31N 51°03' E 001°47'0 0.0
2015-Jun-29 05:31N 51°03' E 001°47'0 0.0
2015-Jun-29 04:28N 51°03' E 001°47'0 0.0
2015-Jun-29 03:31N 51°03' E 001°47'0 0.1
2015-Jun-29 02:31N 51°03' E 001°47'0 0.3
2015-Jun-29 01:31N 51°03' E 001°48'0 0.0
2015-Jun-29 00:31N 51°03' E 001°48'0 0.0
2015-Jun-28 23:28N 51°03' E 001°48'0 0.0
2015-Jun-28 22:31N 51°03' E 001°48'0 0.0
2015-Jun-28 21:31N 51°03' E 001°48'0 0.0
2015-Jun-28 20:25N 51°03' E 001°48'0 0.0
2015-Jun-28 19:22N 51°03' E 001°48'0 0.3
2015-Jun-28 18:31N 51°03' E 001°47'0 0.1
2015-Jun-28 17:31N 51°03' E 001°47'0 0.0
2015-Jun-28 16:31N 51°03' E 001°47'0 0.0
2015-Jun-28 15:31N 51°03' E 001°47'0 0.0
2015-Jun-28 14:31N 51°03' E 001°47'0 0.2
2015-Jun-28 13:31N 51°03' E 001°48'0 0.1
2015-Jun-28 12:31N 51°03' E 001°48'0 0.0
2015-Jun-28 11:31N 51°03' E 001°48'0 0.0
2015-Jun-28 10:31N 51°03' E 001°48'0 0.0
2015-Jun-28 09:28N 51°03' E 001°48'0 0.1
2015-Jun-28 08:33N 51°03' E 001°48'6 5.5
2015-Jun-28 07:33N 51°01' E 001°40'8 8.3
2015-Jun-28 06:33N 50°55' E 001°30'9 9.1
2015-Jun-28 05:33N 50°47' E 001°25'8 8.4
2015-Jun-28 04:34N 50°40' E 001°18'9 8.5
2015-Jun-28 03:33N 50°34' E 001°08'8 8.2
2015-Jun-28 02:32N 50°29' E 000°58'8 8.1
2015-Jun-28 01:33N 50°26' E 000°46'8 7.9
2015-Jun-28 00:31N 50°25' E 000°34'8 7.8
2015-Jun-27 23:31N 50°22' E 000°22'18 7.9
2015-Jun-27 21:14N 50°17' W 000°06'6 8.3
2015-Jun-27 20:33N 50°16' W 000°14'9 8.7
2015-Jun-27 19:33N 50°14' W 000°27'9 9.4
2015-Jun-27 18:33N 50°12' W 000°41'1010.3
2015-Jun-27 17:33N 50°09' W 000°57'1110.8
2015-Jun-27 16:31N 50°06' W 001°14'1111.2
2015-Jun-27 15:33N 50°03' W 001°30'1111.0
2015-Jun-27 14:33N 50°00' W 001°47'344 8.8
2015-Jun-25 23:31N 47°23' W 009°29'9 9.0
2015-Jun-25 22:31N 47°17' W 009°39'  
2015-Jun-21 23:13N 37°21' W 023°01'36 8.7
2015-Jun-21 19:04N 36°54' W 023°31'13 8.6
2015-Jun-21 17:32N 36°44' W 023°41'8 8.3
2015-Jun-21 16:34N 36°37' W 023°47'8 8.3
2015-Jun-21 15:33N 36°31' W 023°54'8 8.3
2015-Jun-21 14:34N 36°24' W 024°00'8 8.2
2015-Jun-21 13:34N 36°18' W 024°07'8 8.0
2015-Jun-21 12:34N 36°12' W 024°13'8 8.3
2015-Jun-21 11:34N 36°05' W 024°20'9 9.4
2015-Jun-21 10:34N 35°58' W 024°27'1212.2
2015-Jun-21 09:34N 35°48' W 024°36'  
Track history (hours):
 
Tides and Currents Weather Stations Pressure Air Temp Water Temp Dewpoint Dewpoint Depression Visibility Wind Speed Wind Dir Waves Ship Positions

Am Tubarao

Last reported at 2015-Jun-30 08:08 UTC. Time now 2015-Jun-30 12:39 UTC.
Position N 51°03' E 002°19'.

Date/timePositionNaut miles runAvg speedWind from/ knotsBaromVisibWave heightAir tempDewpointWater temp
2015-Jun-30 08:08N 51°03' E 002°19'0 0.0
2015-Jun-30 06:32N 51°03' E 002°19'0 0.0
2015-Jun-30 05:26N 51°03' E 002°19'0 0.0
2015-Jun-30 04:32N 51°03' E 002°19'0 0.0
2015-Jun-30 03:32N 51°03' E 002°19'0 0.0
2015-Jun-30 02:32N 51°03' E 002°19'0 0.0
2015-Jun-30 01:32N 51°03' E 002°19'0 0.0
2015-Jun-30 00:32N 51°03' E 002°19'0 0.0
2015-Jun-29 23:32N 51°03' E 002°19'0 0.0
2015-Jun-29 22:23N 51°03' E 002°19'0 0.0
2015-Jun-29 21:32N 51°03' E 002°19'0 0.0
2015-Jun-29 19:23N 51°03' E 002°19'0 0.0
2015-Jun-29 18:32N 51°03' E 002°19'0 0.0
2015-Jun-29 17:32N 51°03' E 002°19'0 0.0
2015-Jun-29 16:32N 51°03' E 002°19'0 0.0
2015-Jun-29 15:32N 51°03' E 002°19'0 0.0
2015-Jun-29 14:32N 51°03' E 002°19'0 0.0
2015-Jun-29 13:33N 51°03' E 002°19'1 0.8
2015-Jun-29 12:33N 51°03' E 002°21'1 1.1
2015-Jun-29 11:30N 51°04' E 002°19'11 9.6
2015-Jun-29 10:21N 51°03' E 002°02'911.5
2015-Jun-29 09:33N 51°02' E 001°47'1 0.9
2015-Jun-29 08:25N 51°03' E 001°48'0 0.1
2015-Jun-29 07:31N 51°03' E 001°48'0 0.2
2015-Jun-29 06:31N 51°03' E 001°47'0 0.0
2015-Jun-29 05:31N 51°03' E 001°47'0 0.0
2015-Jun-29 04:28N 51°03' E 001°47'0 0.0
2015-Jun-29 03:31N 51°03' E 001°47'0 0.1
2015-Jun-29 02:31N 51°03' E 001°47'0 0.3
2015-Jun-29 01:31N 51°03' E 001°48'0 0.0
2015-Jun-29 00:31N 51°03' E 001°48'0 0.0
2015-Jun-28 23:28N 51°03' E 001°48'0 0.0
2015-Jun-28 22:31N 51°03' E 001°48'0 0.0
2015-Jun-28 21:31N 51°03' E 001°48'0 0.0
2015-Jun-28 20:25N 51°03' E 001°48'0 0.0
2015-Jun-28 19:22N 51°03' E 001°48'0 0.3
2015-Jun-28 18:31N 51°03' E 001°47'0 0.1
2015-Jun-28 17:31N 51°03' E 001°47'0 0.0
2015-Jun-28 16:31N 51°03' E 001°47'0 0.0
2015-Jun-28 15:31N 51°03' E 001°47'0 0.0
2015-Jun-28 14:31N 51°03' E 001°47'0 0.2
2015-Jun-28 13:31N 51°03' E 001°48'0 0.1
2015-Jun-28 12:31N 51°03' E 001°48'0 0.0
2015-Jun-28 11:31N 51°03' E 001°48'0 0.0
2015-Jun-28 10:31N 51°03' E 001°48'0 0.0
2015-Jun-28 09:28N 51°03' E 001°48'0 0.1
2015-Jun-28 08:33N 51°03' E 001°48'6 5.5
2015-Jun-28 07:33N 51°01' E 001°40'8 8.3
2015-Jun-28 06:33N 50°55' E 001°30'9 9.1
2015-Jun-28 05:33N 50°47' E 001°25'8 8.4
2015-Jun-28 04:34N 50°40' E 001°18'9 8.5
2015-Jun-28 03:33N 50°34' E 001°08'8 8.2
2015-Jun-28 02:32N 50°29' E 000°58'8 8.1
2015-Jun-28 01:33N 50°26' E 000°46'8 7.9
2015-Jun-28 00:31N 50°25' E 000°34'8 7.8
2015-Jun-27 23:31N 50°22' E 000°22'18 7.9
2015-Jun-27 21:14N 50°17' W 000°06'6 8.3
2015-Jun-27 20:33N 50°16' W 000°14'9 8.7
2015-Jun-27 19:33N 50°14' W 000°27'9 9.4
2015-Jun-27 18:33N 50°12' W 000°41'1010.3
2015-Jun-27 17:33N 50°09' W 000°57'1110.8
2015-Jun-27 16:31N 50°06' W 001°14'1111.2
2015-Jun-27 15:33N 50°03' W 001°30'1111.0
2015-Jun-27 14:33N 50°00' W 001°47'344 8.8
2015-Jun-25 23:31N 47°23' W 009°29'9 9.0
2015-Jun-25 22:31N 47°17' W 009°39'  
2015-Jun-21 23:13N 37°21' W 023°01'36 8.7
2015-Jun-21 19:04N 36°54' W 023°31'13 8.6
2015-Jun-21 17:32N 36°44' W 023°41'8 8.3
2015-Jun-21 16:34N 36°37' W 023°47'8 8.3
2015-Jun-21 15:33N 36°31' W 023°54'8 8.3
2015-Jun-21 14:34N 36°24' W 024°00'8 8.2
2015-Jun-21 13:34N 36°18' W 024°07'8 8.0
2015-Jun-21 12:34N 36°12' W 024°13'8 8.3
2015-Jun-21 11:34N 36°05' W 024°20'9 9.4
2015-Jun-21 10:34N 35°58' W 024°27'1212.2
2015-Jun-21 09:34N 35°48' W 024°36'  

Dump ship's entire track history